sensor_id;sensor_type;location;lat;lon;timestamp;P1;durP1;ratioP1;P2;durP2;ratioP2
14076;SDS011;7114;51.100;13.998;2022-12-07T00:01:11;20.95;;;6.63;;
14076;SDS011;7114;51.100;13.998;2022-12-07T00:03:40;21.58;;;6.80;;
14076;SDS011;7114;51.100;13.998;2022-12-07T00:06:08;21.73;;;6.88;;
14076;SDS011;7114;51.100;13.998;2022-12-07T00:08:35;24.60;;;6.70;;
14076;SDS011;7114;51.100;13.998;2022-12-07T00:11:02;20.33;;;6.68;;
14076;SDS011;7114;51.100;13.998;2022-12-07T00:13:28;19.92;;;5.88;;
14076;SDS011;7114;51.100;13.998;2022-12-07T00:15:55;21.92;;;6.47;;
14076;SDS011;7114;51.100;13.998;2022-12-07T00:18:21;19.92;;;6.15;;
14076;SDS011;7114;51.100;13.998;2022-12-07T00:20:49;19.20;;;6.07;;
14076;SDS011;7114;51.100;13.998;2022-12-07T00:23:15;19.35;;;5.72;;
14076;SDS011;7114;51.100;13.998;2022-12-07T00:25:42;18.83;;;5.50;;
14076;SDS011;7114;51.100;13.998;2022-12-07T00:28:08;19.20;;;6.25;;
14076;SDS011;7114;51.100;13.998;2022-12-07T00:30:35;19.60;;;6.05;;
14076;SDS011;7114;51.100;13.998;2022-12-07T00:33:02;18.17;;;6.20;;
14076;SDS011;7114;51.100;13.998;2022-12-07T00:35:28;19.02;;;5.95;;
14076;SDS011;7114;51.100;13.998;2022-12-07T00:37:56;18.85;;;5.70;;
14076;SDS011;7114;51.100;13.998;2022-12-07T00:40:22;19.48;;;6.18;;
14076;SDS011;7114;51.100;13.998;2022-12-07T00:42:48;17.95;;;5.38;;
14076;SDS011;7114;51.100;13.998;2022-12-07T00:45:15;17.97;;;6.00;;
14076;SDS011;7114;51.100;13.998;2022-12-07T00:47:41;19.45;;;5.65;;
14076;SDS011;7114;51.100;13.998;2022-12-07T00:50:08;17.05;;;5.18;;
14076;SDS011;7114;51.100;13.998;2022-12-07T00:52:34;16.58;;;5.50;;
14076;SDS011;7114;51.100;13.998;2022-12-07T00:55:02;19.55;;;5.47;;
14076;SDS011;7114;51.100;13.998;2022-12-07T00:57:29;16.83;;;5.80;;
14076;SDS011;7114;51.100;13.998;2022-12-07T00:59:56;17.40;;;5.70;;
14076;SDS011;7114;51.100;13.998;2022-12-07T01:02:22;16.35;;;5.55;;
14076;SDS011;7114;51.100;13.998;2022-12-07T01:04:49;17.85;;;5.43;;
14076;SDS011;7114;51.100;13.998;2022-12-07T01:07:15;18.35;;;5.45;;
14076;SDS011;7114;51.100;13.998;2022-12-07T01:09:42;17.03;;;5.13;;
14076;SDS011;7114;51.100;13.998;2022-12-07T01:12:10;15.68;;;5.22;;
14076;SDS011;7114;51.100;13.998;2022-12-07T01:14:36;17.25;;;5.68;;
14076;SDS011;7114;51.100;13.998;2022-12-07T01:17:02;18.55;;;5.53;;
14076;SDS011;7114;51.100;13.998;2022-12-07T01:19:29;17.23;;;6.03;;
14076;SDS011;7114;51.100;13.998;2022-12-07T01:21:55;18.13;;;6.10;;
14076;SDS011;7114;51.100;13.998;2022-12-07T01:24:21;15.65;;;5.40;;
14076;SDS011;7114;51.100;13.998;2022-12-07T01:26:48;16.30;;;5.55;;
14076;SDS011;7114;51.100;13.998;2022-12-07T01:29:16;16.35;;;5.90;;
14076;SDS011;7114;51.100;13.998;2022-12-07T01:31:42;17.73;;;5.68;;
14076;SDS011;7114;51.100;13.998;2022-12-07T01:34:09;17.33;;;5.80;;
14076;SDS011;7114;51.100;13.998;2022-12-07T01:36:35;16.77;;;5.63;;
14076;SDS011;7114;51.100;13.998;2022-12-07T01:39:02;17.02;;;5.75;;
14076;SDS011;7114;51.100;13.998;2022-12-07T01:41:31;15.25;;;4.70;;
14076;SDS011;7114;51.100;13.998;2022-12-07T01:44:16;16.50;;;5.47;;
14076;SDS011;7114;51.100;13.998;2022-12-07T01:46:45;18.40;;;6.17;;
14076;SDS011;7114;51.100;13.998;2022-12-07T01:49:13;17.15;;;5.03;;
14076;SDS011;7114;51.100;13.998;2022-12-07T01:51:42;18.52;;;5.38;;
14076;SDS011;7114;51.100;13.998;2022-12-07T01:54:10;16.60;;;5.57;;
14076;SDS011;7114;51.100;13.998;2022-12-07T01:56:37;19.17;;;5.57;;
14076;SDS011;7114;51.100;13.998;2022-12-07T01:59:04;16.27;;;4.93;;
14076;SDS011;7114;51.100;13.998;2022-12-07T02:01:32;17.67;;;6.05;;
14076;SDS011;7114;51.100;13.998;2022-12-07T02:03:58;17.88;;;5.63;;
14076;SDS011;7114;51.100;13.998;2022-12-07T02:06:25;18.52;;;5.85;;
14076;SDS011;7114;51.100;13.998;2022-12-07T02:08:52;17.48;;;5.47;;
14076;SDS011;7114;51.100;13.998;2022-12-07T02:11:18;18.23;;;5.80;;
14076;SDS011;7114;51.100;13.998;2022-12-07T02:13:45;17.83;;;5.60;;
14076;SDS011;7114;51.100;13.998;2022-12-07T02:16:15;17.10;;;5.90;;
14076;SDS011;7114;51.100;13.998;2022-12-07T02:18:53;18.02;;;5.68;;
14076;SDS011;7114;51.100;13.998;2022-12-07T02:21:28;17.67;;;6.18;;
14076;SDS011;7114;51.100;13.998;2022-12-07T02:24:10;17.93;;;6.37;;
14076;SDS011;7114;51.100;13.998;2022-12-07T02:26:44;17.92;;;5.45;;
14076;SDS011;7114;51.100;13.998;2022-12-07T02:29:34;19.17;;;5.82;;
14076;SDS011;7114;51.100;13.998;2022-12-07T02:32:03;16.58;;;5.40;;
14076;SDS011;7114;51.100;13.998;2022-12-07T02:34:34;19.55;;;6.15;;
14076;SDS011;7114;51.100;13.998;2022-12-07T02:37:08;19.87;;;6.30;;
14076;SDS011;7114;51.100;13.998;2022-12-07T02:39:39;20.17;;;6.45;;
14076;SDS011;7114;51.100;13.998;2022-12-07T02:42:09;17.75;;;6.15;;
14076;SDS011;7114;51.100;13.998;2022-12-07T02:44:41;19.52;;;5.82;;
14076;SDS011;7114;51.100;13.998;2022-12-07T02:47:09;17.73;;;5.50;;
14076;SDS011;7114;51.100;13.998;2022-12-07T02:49:37;17.80;;;5.37;;
14076;SDS011;7114;51.100;13.998;2022-12-07T02:52:04;16.92;;;5.90;;
14076;SDS011;7114;51.100;13.998;2022-12-07T02:54:31;15.60;;;5.25;;
14076;SDS011;7114;51.100;13.998;2022-12-07T02:57:00;17.15;;;5.57;;
14076;SDS011;7114;51.100;13.998;2022-12-07T02:59:32;18.83;;;5.80;;
14076;SDS011;7114;51.100;13.998;2022-12-07T03:02:08;14.47;;;4.87;;
14076;SDS011;7114;51.100;13.998;2022-12-07T03:04:44;14.02;;;4.47;;
14076;SDS011;7114;51.100;13.998;2022-12-07T03:07:18;14.30;;;4.50;;
14076;SDS011;7114;51.100;13.998;2022-12-07T03:09:51;15.57;;;4.55;;
14076;SDS011;7114;51.100;13.998;2022-12-07T03:12:20;14.45;;;4.90;;
14076;SDS011;7114;51.100;13.998;2022-12-07T03:14:52;15.33;;;5.20;;
14076;SDS011;7114;51.100;13.998;2022-12-07T03:17:24;14.48;;;5.05;;
14076;SDS011;7114;51.100;13.998;2022-12-07T03:19:51;15.13;;;4.80;;
14076;SDS011;7114;51.100;13.998;2022-12-07T03:22:20;13.13;;;4.53;;
14076;SDS011;7114;51.100;13.998;2022-12-07T03:24:49;14.15;;;4.93;;
14076;SDS011;7114;51.100;13.998;2022-12-07T03:27:19;15.17;;;5.13;;
14076;SDS011;7114;51.100;13.998;2022-12-07T03:29:47;14.93;;;5.43;;
14076;SDS011;7114;51.100;13.998;2022-12-07T03:32:16;14.48;;;4.65;;
14076;SDS011;7114;51.100;13.998;2022-12-07T03:34:49;13.77;;;4.97;;
14076;SDS011;7114;51.100;13.998;2022-12-07T03:37:20;14.18;;;4.93;;
14076;SDS011;7114;51.100;13.998;2022-12-07T03:39:51;14.83;;;4.97;;
14076;SDS011;7114;51.100;13.998;2022-12-07T03:42:22;14.15;;;4.57;;
14076;SDS011;7114;51.100;13.998;2022-12-07T03:44:49;14.15;;;4.63;;
14076;SDS011;7114;51.100;13.998;2022-12-07T03:47:17;14.80;;;5.00;;
14076;SDS011;7114;51.100;13.998;2022-12-07T03:49:50;15.05;;;4.43;;
14076;SDS011;7114;51.100;13.998;2022-12-07T03:52:19;15.17;;;4.93;;
14076;SDS011;7114;51.100;13.998;2022-12-07T03:54:51;14.88;;;4.90;;
14076;SDS011;7114;51.100;13.998;2022-12-07T03:57:20;14.52;;;4.45;;
14076;SDS011;7114;51.100;13.998;2022-12-07T03:59:47;15.68;;;5.22;;
14076;SDS011;7114;51.100;13.998;2022-12-07T04:02:14;15.13;;;5.32;;
14076;SDS011;7114;51.100;13.998;2022-12-07T04:04:41;17.63;;;5.00;;
14076;SDS011;7114;51.100;13.998;2022-12-07T04:07:10;16.75;;;4.68;;
14076;SDS011;7114;51.100;13.998;2022-12-07T04:09:37;15.05;;;5.00;;
14076;SDS011;7114;51.100;13.998;2022-12-07T04:12:04;16.33;;;5.05;;
14076;SDS011;7114;51.100;13.998;2022-12-07T04:14:31;14.73;;;4.88;;
14076;SDS011;7114;51.100;13.998;2022-12-07T04:16:57;16.00;;;5.63;;
14076;SDS011;7114;51.100;13.998;2022-12-07T04:19:25;15.63;;;5.45;;
14076;SDS011;7114;51.100;13.998;2022-12-07T04:21:52;15.77;;;5.20;;
14076;SDS011;7114;51.100;13.998;2022-12-07T04:24:20;15.07;;;5.07;;
14076;SDS011;7114;51.100;13.998;2022-12-07T04:26:47;16.13;;;5.47;;
14076;SDS011;7114;51.100;13.998;2022-12-07T04:29:14;17.07;;;5.27;;
14076;SDS011;7114;51.100;13.998;2022-12-07T04:31:41;15.73;;;5.07;;
14076;SDS011;7114;51.100;13.998;2022-12-07T04:34:08;17.38;;;5.30;;
14076;SDS011;7114;51.100;13.998;2022-12-07T04:36:34;17.95;;;5.65;;
14076;SDS011;7114;51.100;13.998;2022-12-07T04:39:02;16.08;;;5.28;;
14076;SDS011;7114;51.100;13.998;2022-12-07T04:41:30;16.73;;;5.80;;
14076;SDS011;7114;51.100;13.998;2022-12-07T04:43:56;16.83;;;5.97;;
14076;SDS011;7114;51.100;13.998;2022-12-07T04:46:23;16.90;;;5.50;;
14076;SDS011;7114;51.100;13.998;2022-12-07T04:48:51;17.27;;;6.15;;
14076;SDS011;7114;51.100;13.998;2022-12-07T04:51:19;19.42;;;6.32;;
14076;SDS011;7114;51.100;13.998;2022-12-07T04:53:46;19.17;;;6.63;;
14076;SDS011;7114;51.100;13.998;2022-12-07T04:56:13;19.13;;;6.18;;
14076;SDS011;7114;51.100;13.998;2022-12-07T04:58:41;19.75;;;6.32;;
14076;SDS011;7114;51.100;13.998;2022-12-07T05:01:07;17.55;;;5.85;;
14076;SDS011;7114;51.100;13.998;2022-12-07T05:03:34;17.67;;;5.72;;
14076;SDS011;7114;51.100;13.998;2022-12-07T05:06:01;20.70;;;5.70;;
14076;SDS011;7114;51.100;13.998;2022-12-07T05:08:28;17.70;;;5.85;;
14076;SDS011;7114;51.100;13.998;2022-12-07T05:10:54;18.27;;;6.32;;
14076;SDS011;7114;51.100;13.998;2022-12-07T05:13:21;18.20;;;5.43;;
14076;SDS011;7114;51.100;13.998;2022-12-07T05:15:48;18.02;;;6.07;;
14076;SDS011;7114;51.100;13.998;2022-12-07T05:18:15;18.10;;;5.73;;
14076;SDS011;7114;51.100;13.998;2022-12-07T05:20:42;16.80;;;4.93;;
14076;SDS011;7114;51.100;13.998;2022-12-07T05:23:08;19.88;;;5.93;;
14076;SDS011;7114;51.100;13.998;2022-12-07T05:25:35;16.13;;;5.38;;
14076;SDS011;7114;51.100;13.998;2022-12-07T05:28:02;17.70;;;5.60;;
14076;SDS011;7114;51.100;13.998;2022-12-07T05:30:29;16.50;;;5.10;;
14076;SDS011;7114;51.100;13.998;2022-12-07T05:32:56;17.92;;;5.70;;
14076;SDS011;7114;51.100;13.998;2022-12-07T05:35:23;15.85;;;5.30;;
14076;SDS011;7114;51.100;13.998;2022-12-07T05:37:49;17.38;;;5.47;;
14076;SDS011;7114;51.100;13.998;2022-12-07T05:40:16;16.70;;;5.32;;
14076;SDS011;7114;51.100;13.998;2022-12-07T05:42:44;17.80;;;5.10;;
14076;SDS011;7114;51.100;13.998;2022-12-07T05:45:10;17.00;;;5.03;;
14076;SDS011;7114;51.100;13.998;2022-12-07T05:47:37;15.00;;;4.70;;
14076;SDS011;7114;51.100;13.998;2022-12-07T05:50:05;15.32;;;4.88;;
14076;SDS011;7114;51.100;13.998;2022-12-07T05:52:32;18.00;;;4.97;;
14076;SDS011;7114;51.100;13.998;2022-12-07T05:54:59;16.40;;;4.67;;
14076;SDS011;7114;51.100;13.998;2022-12-07T05:57:25;15.73;;;5.18;;
14076;SDS011;7114;51.100;13.998;2022-12-07T05:59:52;15.57;;;4.60;;
14076;SDS011;7114;51.100;13.998;2022-12-07T06:02:17;16.23;;;5.17;;
14076;SDS011;7114;51.100;13.998;2022-12-07T06:04:44;17.38;;;5.35;;
14076;SDS011;7114;51.100;13.998;2022-12-07T06:07:13;13.90;;;4.57;;
14076;SDS011;7114;51.100;13.998;2022-12-07T06:09:41;15.85;;;5.32;;
14076;SDS011;7114;51.100;13.998;2022-12-07T06:12:08;18.43;;;5.00;;
14076;SDS011;7114;51.100;13.998;2022-12-07T06:14:53;15.57;;;4.85;;
14076;SDS011;7114;51.100;13.998;2022-12-07T06:17:19;15.35;;;5.10;;
14076;SDS011;7114;51.100;13.998;2022-12-07T06:19:45;13.75;;;4.60;;
14076;SDS011;7114;51.100;13.998;2022-12-07T06:22:13;13.77;;;4.32;;
14076;SDS011;7114;51.100;13.998;2022-12-07T06:24:41;16.17;;;4.50;;
14076;SDS011;7114;51.100;13.998;2022-12-07T06:27:08;13.77;;;4.40;;
14076;SDS011;7114;51.100;13.998;2022-12-07T06:29:34;13.80;;;4.50;;
14076;SDS011;7114;51.100;13.998;2022-12-07T06:32:01;14.73;;;4.68;;
14076;SDS011;7114;51.100;13.998;2022-12-07T06:34:27;14.02;;;4.55;;
14076;SDS011;7114;51.100;13.998;2022-12-07T06:36:53;13.53;;;4.30;;
14076;SDS011;7114;51.100;13.998;2022-12-07T06:39:23;16.85;;;4.35;;
14076;SDS011;7114;51.100;13.998;2022-12-07T06:41:50;13.07;;;4.10;;
14076;SDS011;7114;51.100;13.998;2022-12-07T06:44:17;12.18;;;4.07;;
14076;SDS011;7114;51.100;13.998;2022-12-07T06:46:44;12.85;;;3.72;;
14076;SDS011;7114;51.100;13.998;2022-12-07T06:49:11;15.37;;;4.33;;
14076;SDS011;7114;51.100;13.998;2022-12-07T06:51:37;14.30;;;4.00;;
14076;SDS011;7114;51.100;13.998;2022-12-07T06:54:06;13.07;;;4.00;;
14076;SDS011;7114;51.100;13.998;2022-12-07T06:56:34;12.02;;;3.75;;
14076;SDS011;7114;51.100;13.998;2022-12-07T06:59:00;11.88;;;3.90;;
14076;SDS011;7114;51.100;13.998;2022-12-07T07:01:27;15.23;;;4.93;;
14076;SDS011;7114;51.100;13.998;2022-12-07T07:03:53;14.43;;;5.25;;
14076;SDS011;7114;51.100;13.998;2022-12-07T07:06:20;15.43;;;5.25;;
14076;SDS011;7114;51.100;13.998;2022-12-07T07:08:46;13.43;;;4.45;;
14076;SDS011;7114;51.100;13.998;2022-12-07T07:11:12;13.57;;;4.65;;
14076;SDS011;7114;51.100;13.998;2022-12-07T07:13:40;14.83;;;4.60;;
14076;SDS011;7114;51.100;13.998;2022-12-07T07:16:07;13.80;;;4.65;;
14076;SDS011;7114;51.100;13.998;2022-12-07T07:18:33;12.10;;;4.25;;
14076;SDS011;7114;51.100;13.998;2022-12-07T07:21:00;10.07;;;3.42;;
14076;SDS011;7114;51.100;13.998;2022-12-07T07:23:27;15.30;;;4.00;;
14076;SDS011;7114;51.100;13.998;2022-12-07T07:25:53;10.77;;;3.53;;
14076;SDS011;7114;51.100;13.998;2022-12-07T07:28:19;10.65;;;3.50;;
14076;SDS011;7114;51.100;13.998;2022-12-07T07:30:47;13.48;;;4.22;;
14076;SDS011;7114;51.100;13.998;2022-12-07T07:33:14;14.57;;;4.65;;
14076;SDS011;7114;51.100;13.998;2022-12-07T07:35:40;14.55;;;4.88;;
14076;SDS011;7114;51.100;13.998;2022-12-07T07:38:07;12.30;;;3.80;;
14076;SDS011;7114;51.100;13.998;2022-12-07T07:40:34;11.65;;;4.15;;
14076;SDS011;7114;51.100;13.998;2022-12-07T07:43:00;13.07;;;3.95;;
14076;SDS011;7114;51.100;13.998;2022-12-07T07:45:27;11.48;;;3.30;;
14076;SDS011;7114;51.100;13.998;2022-12-07T07:47:55;10.10;;;3.10;;
14076;SDS011;7114;51.100;13.998;2022-12-07T07:50:21;13.07;;;3.53;;
14076;SDS011;7114;51.100;13.998;2022-12-07T07:52:48;13.10;;;4.10;;
14076;SDS011;7114;51.100;13.998;2022-12-07T07:55:14;13.60;;;4.00;;
14076;SDS011;7114;51.100;13.998;2022-12-07T07:57:41;13.57;;;4.75;;
14076;SDS011;7114;51.100;13.998;2022-12-07T08:00:08;15.90;;;5.40;;
14076;SDS011;7114;51.100;13.998;2022-12-07T08:02:36;12.23;;;4.50;;
14076;SDS011;7114;51.100;13.998;2022-12-07T08:05:07;9.90;;;3.40;;
14076;SDS011;7114;51.100;13.998;2022-12-07T08:07:33;10.50;;;3.60;;
14076;SDS011;7114;51.100;13.998;2022-12-07T08:10:00;11.30;;;3.63;;
14076;SDS011;7114;51.100;13.998;2022-12-07T08:12:26;11.25;;;3.90;;
14076;SDS011;7114;51.100;13.998;2022-12-07T08:14:52;11.80;;;4.17;;
14076;SDS011;7114;51.100;13.998;2022-12-07T08:17:19;11.88;;;3.83;;
14076;SDS011;7114;51.100;13.998;2022-12-07T08:19:45;11.15;;;4.05;;
14076;SDS011;7114;51.100;13.998;2022-12-07T08:22:13;10.32;;;4.03;;
14076;SDS011;7114;51.100;13.998;2022-12-07T08:24:39;9.25;;;3.47;;
14076;SDS011;7114;51.100;13.998;2022-12-07T08:27:06;11.03;;;3.93;;
14076;SDS011;7114;51.100;13.998;2022-12-07T08:29:32;11.05;;;3.97;;
14076;SDS011;7114;51.100;13.998;2022-12-07T08:31:58;13.95;;;4.13;;
14076;SDS011;7114;51.100;13.998;2022-12-07T08:34:26;10.95;;;3.90;;
14076;SDS011;7114;51.100;13.998;2022-12-07T08:36:52;10.30;;;3.65;;
14076;SDS011;7114;51.100;13.998;2022-12-07T08:39:20;11.23;;;4.10;;
14076;SDS011;7114;51.100;13.998;2022-12-07T08:41:47;11.55;;;4.18;;
14076;SDS011;7114;51.100;13.998;2022-12-07T08:44:13;11.48;;;4.30;;
14076;SDS011;7114;51.100;13.998;2022-12-07T08:46:40;11.00;;;4.05;;
14076;SDS011;7114;51.100;13.998;2022-12-07T08:49:10;11.20;;;4.03;;
14076;SDS011;7114;51.100;13.998;2022-12-07T08:51:39;11.57;;;4.40;;
14076;SDS011;7114;51.100;13.998;2022-12-07T08:54:06;11.55;;;4.22;;
14076;SDS011;7114;51.100;13.998;2022-12-07T08:56:35;11.93;;;4.40;;
14076;SDS011;7114;51.100;13.998;2022-12-07T08:59:01;12.13;;;4.38;;
14076;SDS011;7114;51.100;13.998;2022-12-07T09:01:28;11.57;;;4.40;;
14076;SDS011;7114;51.100;13.998;2022-12-07T09:03:54;11.00;;;4.20;;
14076;SDS011;7114;51.100;13.998;2022-12-07T09:06:21;12.43;;;4.72;;
14076;SDS011;7114;51.100;13.998;2022-12-07T09:08:49;10.43;;;4.07;;
14076;SDS011;7114;51.100;13.998;2022-12-07T09:11:17;11.35;;;4.28;;
14076;SDS011;7114;51.100;13.998;2022-12-07T09:13:44;11.93;;;4.07;;
14076;SDS011;7114;51.100;13.998;2022-12-07T09:16:11;12.87;;;4.53;;
14076;SDS011;7114;51.100;13.998;2022-12-07T09:18:37;13.02;;;4.55;;
14076;SDS011;7114;51.100;13.998;2022-12-07T09:21:04;13.65;;;4.75;;
14076;SDS011;7114;51.100;13.998;2022-12-07T09:23:30;12.77;;;4.57;;
14076;SDS011;7114;51.100;13.998;2022-12-07T09:25:58;11.98;;;4.45;;
14076;SDS011;7114;51.100;13.998;2022-12-07T09:28:25;14.50;;;4.93;;
14076;SDS011;7114;51.100;13.998;2022-12-07T09:30:52;11.90;;;4.43;;
14076;SDS011;7114;51.100;13.998;2022-12-07T09:33:19;12.88;;;4.47;;
14076;SDS011;7114;51.100;13.998;2022-12-07T09:35:45;12.38;;;4.25;;
14076;SDS011;7114;51.100;13.998;2022-12-07T09:38:12;12.45;;;4.30;;
14076;SDS011;7114;51.100;13.998;2022-12-07T09:40:38;11.60;;;4.37;;
14076;SDS011;7114;51.100;13.998;2022-12-07T09:43:11;11.63;;;4.00;;
14076;SDS011;7114;51.100;13.998;2022-12-07T09:45:38;12.40;;;4.35;;
14076;SDS011;7114;51.100;13.998;2022-12-07T09:48:08;12.75;;;4.10;;
14076;SDS011;7114;51.100;13.998;2022-12-07T09:50:41;10.70;;;3.67;;
14076;SDS011;7114;51.100;13.998;2022-12-07T09:53:09;10.60;;;3.63;;
14076;SDS011;7114;51.100;13.998;2022-12-07T09:55:36;12.60;;;4.10;;
14076;SDS011;7114;51.100;13.998;2022-12-07T09:58:04;13.85;;;4.82;;
14076;SDS011;7114;51.100;13.998;2022-12-07T10:00:30;13.55;;;4.40;;
14076;SDS011;7114;51.100;13.998;2022-12-07T10:02:56;11.88;;;4.43;;
14076;SDS011;7114;51.100;13.998;2022-12-07T10:05:26;11.63;;;4.03;;
14076;SDS011;7114;51.100;13.998;2022-12-07T10:07:55;10.30;;;3.60;;
14076;SDS011;7114;51.100;13.998;2022-12-07T10:10:23;10.70;;;3.67;;
14076;SDS011;7114;51.100;13.998;2022-12-07T10:12:52;10.60;;;3.15;;
14076;SDS011;7114;51.100;13.998;2022-12-07T10:15:23;9.85;;;3.45;;
14076;SDS011;7114;51.100;13.998;2022-12-07T10:17:50;8.93;;;3.23;;
14076;SDS011;7114;51.100;13.998;2022-12-07T10:20:18;10.50;;;3.40;;
14076;SDS011;7114;51.100;13.998;2022-12-07T10:23:01;9.85;;;3.15;;
14076;SDS011;7114;51.100;13.998;2022-12-07T10:25:30;7.90;;;3.00;;
14076;SDS011;7114;51.100;13.998;2022-12-07T10:27:59;9.00;;;3.25;;
14076;SDS011;7114;51.100;13.998;2022-12-07T10:30:27;9.27;;;3.00;;
14076;SDS011;7114;51.100;13.998;2022-12-07T10:32:53;8.82;;;2.83;;
14076;SDS011;7114;51.100;13.998;2022-12-07T10:35:22;10.13;;;3.15;;
14076;SDS011;7114;51.100;13.998;2022-12-07T10:37:50;11.57;;;3.38;;
14076;SDS011;7114;51.100;13.998;2022-12-07T10:40:29;9.75;;;2.63;;
14076;SDS011;7114;51.100;13.998;2022-12-07T10:43:05;8.13;;;2.80;;
14076;SDS011;7114;51.100;13.998;2022-12-07T10:45:41;9.70;;;3.15;;
14076;SDS011;7114;51.100;13.998;2022-12-07T10:48:32;8.52;;;2.80;;
14076;SDS011;7114;51.100;13.998;2022-12-07T10:51:03;8.80;;;2.97;;
14076;SDS011;7114;51.100;13.998;2022-12-07T10:53:35;8.80;;;2.97;;
14076;SDS011;7114;51.100;13.998;2022-12-07T10:56:12;8.70;;;2.73;;
14076;SDS011;7114;51.100;13.998;2022-12-07T10:58:50;10.13;;;2.92;;
14076;SDS011;7114;51.100;13.998;2022-12-07T11:01:25;9.43;;;2.53;;
14076;SDS011;7114;51.100;13.998;2022-12-07T11:04:01;9.00;;;2.78;;
14076;SDS011;7114;51.100;13.998;2022-12-07T11:06:37;9.85;;;3.17;;
14076;SDS011;7114;51.100;13.998;2022-12-07T11:09:15;10.47;;;3.30;;
14076;SDS011;7114;51.100;13.998;2022-12-07T11:11:58;9.25;;;3.30;;
14076;SDS011;7114;51.100;13.998;2022-12-07T11:14:28;8.68;;;3.17;;
14076;SDS011;7114;51.100;13.998;2022-12-07T11:16:59;8.35;;;2.67;;
14076;SDS011;7114;51.100;13.998;2022-12-07T11:19:32;9.60;;;3.10;;
14076;SDS011;7114;51.100;13.998;2022-12-07T11:22:09;9.37;;;3.10;;
14076;SDS011;7114;51.100;13.998;2022-12-07T11:24:40;10.68;;;3.40;;
14076;SDS011;7114;51.100;13.998;2022-12-07T11:27:16;11.93;;;3.60;;
14076;SDS011;7114;51.100;13.998;2022-12-07T11:32:45;11.55;;;3.78;;
14076;SDS011;7114;51.100;13.998;2022-12-07T11:35:20;10.40;;;3.40;;
14076;SDS011;7114;51.100;13.998;2022-12-07T11:37:51;10.52;;;3.40;;
14076;SDS011;7114;51.100;13.998;2022-12-07T11:40:24;13.40;;;3.70;;
14076;SDS011;7114;51.100;13.998;2022-12-07T11:42:55;10.10;;;3.30;;
14076;SDS011;7114;51.100;13.998;2022-12-07T11:45:26;10.38;;;3.65;;
14076;SDS011;7114;51.100;13.998;2022-12-07T11:47:54;10.27;;;4.20;;
14076;SDS011;7114;51.100;13.998;2022-12-07T11:50:26;11.35;;;4.18;;
14076;SDS011;7114;51.100;13.998;2022-12-07T11:52:57;13.40;;;4.47;;
14076;SDS011;7114;51.100;13.998;2022-12-07T11:55:27;11.35;;;4.30;;
14076;SDS011;7114;51.100;13.998;2022-12-07T11:58:00;12.45;;;4.68;;
14076;SDS011;7114;51.100;13.998;2022-12-07T12:00:30;10.50;;;4.23;;
14076;SDS011;7114;51.100;13.998;2022-12-07T12:02:57;12.55;;;4.15;;
14076;SDS011;7114;51.100;13.998;2022-12-07T12:05:26;13.52;;;4.10;;
14076;SDS011;7114;51.100;13.998;2022-12-07T12:07:54;11.45;;;3.78;;
14076;SDS011;7114;51.100;13.998;2022-12-07T12:10:29;10.00;;;3.13;;
14076;SDS011;7114;51.100;13.998;2022-12-07T12:13:08;9.20;;;2.70;;
14076;SDS011;7114;51.100;13.998;2022-12-07T12:15:51;7.97;;;2.65;;
14076;SDS011;7114;51.100;13.998;2022-12-07T12:18:27;6.80;;;1.95;;
14076;SDS011;7114;51.100;13.998;2022-12-07T12:21:02;7.43;;;2.13;;
14076;SDS011;7114;51.100;13.998;2022-12-07T12:23:34;6.78;;;1.90;;
14076;SDS011;7114;51.100;13.998;2022-12-07T12:26:03;6.80;;;1.93;;
14076;SDS011;7114;51.100;13.998;2022-12-07T12:28:34;7.72;;;2.35;;
14076;SDS011;7114;51.100;13.998;2022-12-07T12:31:05;7.35;;;2.10;;
14076;SDS011;7114;51.100;13.998;2022-12-07T12:33:36;9.10;;;2.70;;
14076;SDS011;7114;51.100;13.998;2022-12-07T12:36:21;8.45;;;2.47;;
14076;SDS011;7114;51.100;13.998;2022-12-07T12:38:51;9.00;;;2.70;;
14076;SDS011;7114;51.100;13.998;2022-12-07T12:44:40;10.15;;;2.67;;
14076;SDS011;7114;51.100;13.998;2022-12-07T12:50:20;8.43;;;2.97;;
14076;SDS011;7114;51.100;13.998;2022-12-07T12:52:50;8.03;;;2.67;;
14076;SDS011;7114;51.100;13.998;2022-12-07T12:55:22;7.95;;;2.42;;
14076;SDS011;7114;51.100;13.998;2022-12-07T13:03:55;10.60;;;3.13;;
14076;SDS011;7114;51.100;13.998;2022-12-07T13:06:33;10.47;;;3.40;;
14076;SDS011;7114;51.100;13.998;2022-12-07T13:09:03;8.73;;;3.15;;
14076;SDS011;7114;51.100;13.998;2022-12-07T13:11:31;10.07;;;3.33;;
14076;SDS011;7114;51.100;13.998;2022-12-07T13:17:07;8.77;;;3.03;;
14076;SDS011;7114;51.100;13.998;2022-12-07T13:22:40;10.75;;;3.40;;
14076;SDS011;7114;51.100;13.998;2022-12-07T13:25:10;8.10;;;3.05;;
14076;SDS011;7114;51.100;13.998;2022-12-07T13:27:39;10.23;;;3.17;;
14076;SDS011;7114;51.100;13.998;2022-12-07T13:30:09;9.55;;;3.50;;
14076;SDS011;7114;51.100;13.998;2022-12-07T13:32:40;12.07;;;4.57;;
14076;SDS011;7114;51.100;13.998;2022-12-07T13:37:59;13.18;;;4.60;;
14076;SDS011;7114;51.100;13.998;2022-12-07T13:40:27;12.20;;;4.15;;
14076;SDS011;7114;51.100;13.998;2022-12-07T13:42:57;12.55;;;3.97;;
14076;SDS011;7114;51.100;13.998;2022-12-07T13:45:25;10.03;;;3.07;;
14076;SDS011;7114;51.100;13.998;2022-12-07T13:48:13;9.07;;;2.70;;
14076;SDS011;7114;51.100;13.998;2022-12-07T13:50:47;7.72;;;2.50;;
14076;SDS011;7114;51.100;13.998;2022-12-07T13:53:18;7.50;;;2.30;;
14076;SDS011;7114;51.100;13.998;2022-12-07T13:55:45;7.72;;;2.00;;
14076;SDS011;7114;51.100;13.998;2022-12-07T13:58:12;7.47;;;1.90;;
14076;SDS011;7114;51.100;13.998;2022-12-07T14:00:39;6.63;;;1.58;;
14076;SDS011;7114;51.100;13.998;2022-12-07T14:03:20;7.78;;;1.40;;
14076;SDS011;7114;51.100;13.998;2022-12-07T14:06:04;7.55;;;1.30;;
14076;SDS011;7114;51.100;13.998;2022-12-07T14:08:33;6.22;;;1.58;;
14076;SDS011;7114;51.100;13.998;2022-12-07T14:10:59;6.80;;;1.30;;
14076;SDS011;7114;51.100;13.998;2022-12-07T14:13:27;9.02;;;1.73;;
14076;SDS011;7114;51.100;13.998;2022-12-07T14:15:57;6.50;;;1.50;;
14076;SDS011;7114;51.100;13.998;2022-12-07T14:18:25;7.30;;;1.90;;
14076;SDS011;7114;51.100;13.998;2022-12-07T14:21:02;7.63;;;2.10;;
14076;SDS011;7114;51.100;13.998;2022-12-07T14:23:30;7.73;;;2.00;;
14076;SDS011;7114;51.100;13.998;2022-12-07T14:26:04;8.30;;;2.53;;
14076;SDS011;7114;51.100;13.998;2022-12-07T14:28:33;7.78;;;2.63;;
14076;SDS011;7114;51.100;13.998;2022-12-07T14:31:01;9.90;;;2.58;;
14076;SDS011;7114;51.100;13.998;2022-12-07T14:33:28;8.27;;;2.35;;
14076;SDS011;7114;51.100;13.998;2022-12-07T14:35:55;7.73;;;2.47;;
14076;SDS011;7114;51.100;13.998;2022-12-07T14:38:24;8.77;;;2.88;;
14076;SDS011;7114;51.100;13.998;2022-12-07T14:40:51;9.65;;;3.13;;
14076;SDS011;7114;51.100;13.998;2022-12-07T14:43:19;9.85;;;2.80;;
14076;SDS011;7114;51.100;13.998;2022-12-07T14:45:46;9.32;;;2.72;;
14076;SDS011;7114;51.100;13.998;2022-12-07T14:48:14;12.33;;;3.80;;
14076;SDS011;7114;51.100;13.998;2022-12-07T14:50:42;10.55;;;3.40;;
14076;SDS011;7114;51.100;13.998;2022-12-07T14:53:10;9.98;;;3.22;;
14076;SDS011;7114;51.100;13.998;2022-12-07T14:55:40;9.82;;;2.90;;
14076;SDS011;7114;51.100;13.998;2022-12-07T14:58:08;11.32;;;3.42;;
14076;SDS011;7114;51.100;13.998;2022-12-07T15:00:38;11.90;;;3.70;;
14076;SDS011;7114;51.100;13.998;2022-12-07T15:03:04;10.73;;;3.88;;
14076;SDS011;7114;51.100;13.998;2022-12-07T15:05:31;12.52;;;4.47;;
14076;SDS011;7114;51.100;13.998;2022-12-07T15:07:57;13.85;;;4.55;;
14076;SDS011;7114;51.100;13.998;2022-12-07T15:10:24;12.05;;;4.00;;